Terminal Aerodrome Forecast
Issued by NWS

Home | Current Version | Previous Version | Text Only | Print | Product List | Glossary On
Versions: 1 2 3 4 5 6 7 8 9 10 11 12 13 14
381
FTUS45 KPIH 261120
TAFSUN
TAF
KSUN 261120Z 2612/2712 31008KT P6SM FEW200
     FM261800 15006KT P6SM VCSH SCT030 BKN080
     FM262300 15007KT 5SM -SHRASN BR SCT015 OVC020
     FM270500 31005KT P6SM VCSH SCT020 OVC030
      AMD LTD TO CLD VIS AND WIND TIL 261300=

USA.gov is the U.S. government's official web portal to all federal, state and local government web resources and services.